Terminal Aerodrome Forecast
Issued by NWS

Home | Current Version | Previous Version | Graphics & Text | Print | Product List | Glossary On
Versions: 1 2 3 4 5 6 7 8 9 10 11 12 13 14 15 16 17 18
000
FTUS43 KMPX 162338
TAFRWF
TAF
KRWF 162338Z 1700/1724 02004KT P6SM OVC060
     FM170300 00000KT P6SM OVC016
     FM172000 00000KT P6SM BKN022=

USA.gov is the U.S. government's official web portal to all federal, state and local government web resources and services.